M I D A S
Marine Information and Data Acquisition System
Tripno 443 of the Zeeleeuw from 2003-03-05 10:22:25 to 2003-03-05 15:07:28
Back to CruiseResearch ActivitiesStationsMapUnderway DataData graphs

EquipmentUnitsComments
TimeDGPSUTC
LatitudeDGPSDM.mWGS84
LongitudeDGPSDM.mWGS84
SpeedMeteo Stationm/sRelative wind speed
DirectionMeteo StationdegRelative wind direction
TemperatureMeteo Stationdeg CelciusAir temperature
PressureMeteo StationPaAtmospheric pressure
HumidityMeteo Station%Relative humidity
Missing or incorrect values are displayed as -999
Metereological data collected by the RV Zeeleeuw from 2003-03-05 10:22:25 to 2003-03-05 15:07:28
Time Latitude Longitude Speed Direction Temperature Pressure Humidity
2003-03-05 10:23 51°13.695 2°55.747 3.5 83 11.2 101560 86
2003-03-05 10:24 51°13.695 2°55.735 3 47 11.2 101570 86
2003-03-05 10:25 51°13.743 2°55.7 1.8 318 11.3 101570 86
2003-03-05 10:26 51°13.843 2°55.62 1 14 11.4 101560 86
2003-03-05 10:27 51°13.957 2°55.536 0.2 360 11.5 101560 86
2003-03-05 10:28 51°14.084 2°55.443 1.4 295 11.5 101570 86
2003-03-05 10:29 51°14.215 2°55.322 2.6 259 11.5 101570 85
2003-03-05 10:30 51°14.335 2°55.119 5.1 290 11.5 101570 85
2003-03-05 10:31 51°14.41 2°54.848 6 263 11.5 101560 85
2003-03-05 10:32 51°14.368 2°54.546 11.4 265 11.4 101540 84
2003-03-05 10:33 51°14.276 2°54.243 10.6 260 11.3 101530 84
2003-03-05 10:34 51°14.169 2°53.89 11.1 258 11.2 101540 84
2003-03-05 10:35 51°14.077 2°53.586 11.5 263 11.2 101530 84
2003-03-05 10:36 51°13.979 2°53.262 12.8 256 11.1 101530 85
2003-03-05 10:37 51°13.866 2°52.927 13.2 257 11.1 101510 85
2003-03-05 10:38 51°13.75 2°52.587 12.7 253 11 101520 85
2003-03-05 10:39 51°13.632 2°52.233 12.6 257 11 101510 85
2003-03-05 10:40 51°13.52 2°51.9 14.6 262 10.9 101510 85
2003-03-05 10:42 51°13.392 2°51.515 12.9 260 10.9 101510 85
2003-03-05 10:43 51°13.27 2°51.145 12.7 261 10.8 101510 86
2003-03-05 10:44 51°13.151 2°50.802 14.4 261 10.7 101500 86
2003-03-05 10:45 51°13.021 2°50.439 13.5 258 10.7 101510 86
2003-03-05 10:46 51°12.899 2°50.094 12.8 260 10.7 101500 86
2003-03-05 10:47 51°12.77 2°49.735 13.2 256 10.7 101500 87
2003-03-05 10:48 51°12.648 2°49.399 13.5 258 10.7 101500 87
2003-03-05 10:49 51°12.528 2°49.064 12.7 256 10.7 101500 87
2003-03-05 10:50 51°12.414 2°48.731 12.2 258 10.7 101500 87
2003-03-05 10:51 51°12.3 2°48.384 13.1 256 10.7 101500 87
2003-03-05 10:52 51°12.181 2°48.021 11.9 257 10.8 101500 87
2003-03-05 10:53 51°12.071 2°47.687 12.8 264 10.7 101500 87
2003-03-05 10:54 51°11.957 2°47.342 12.7 264 10.7 101500 87
2003-03-05 10:55 51°11.848 2°47.011 12.9 263 10.6 101500 87
2003-03-05 10:56 51°11.733 2°46.646 12 266 10.6 101500 87
2003-03-05 10:57 51°11.635 2°46.268 10.9 264 10.7 101500 88
2003-03-05 10:58 51°11.576 2°45.871 11.4 271 10.7 101500 88
2003-03-05 10:59 51°11.517 2°45.467 11.4 271 10.8 101510 88
2003-03-05 11:00 51°11.462 2°45.094 11.6 272 10.7 101510 87
2003-03-05 11:01 51°11.407 2°44.723 11 265 10.7 101500 87
2003-03-05 11:02 51°11.352 2°44.355 11.5 267 10.6 101500 87
2003-03-05 11:03 51°11.296 2°43.991 12.3 268 10.6 101500 87
2003-03-05 11:04 51°11.231 2°43.632 12.3 264 10.5 101500 87
2003-03-05 11:05 51°11.165 2°43.275 11.7 260 10.5 101500 87
2003-03-05 11:06 51°11.099 2°42.92 11.2 254 10.4 101510 87
2003-03-05 11:07 51°11.032 2°42.561 9.2 251 10.4 101510 87
2003-03-05 11:08 51°10.998 2°42.301 7.2 269 10.3 101520 87
2003-03-05 11:09 51°11.029 2°42.109 5 301 10.3 101530 87
2003-03-05 11:10 51°11.08 2°42.044 3.8 10 10.3 101540 87
2003-03-05 11:11 51°11.114 2°42.034 3.4 28 10.3 101540 87
2003-03-05 11:12 51°11.134 2°42.034 4.4 26 10.2 101530 87
2003-03-05 11:13 51°11.149 2°42.032 4 27 10.3 101520 88
2003-03-05 11:14 51°11.161 2°42.029 4.4 26 10.3 101530 88
2003-03-05 11:15 51°11.175 2°42.025 5.3 22 10.4 101520 88
2003-03-05 11:16 51°11.187 2°42.019 5.2 11 10.5 101530 88
2003-03-05 11:17 51°11.206 2°41.982 4.8 306 10.5 101520 88
2003-03-05 11:18 51°11.181 2°41.847 9.8 262 10.3 101520 88
2003-03-05 11:19 51°11.066 2°41.553 11.2 256 10.3 101490 87
2003-03-05 11:20 51°10.951 2°41.239 11.4 252 10.2 101490 87
2003-03-05 11:21 51°10.84 2°40.939 11.7 253 10.1 101500 88
2003-03-05 11:22 51°10.72 2°40.612 11.7 252 10.1 101490 88
2003-03-05 11:23 51°10.604 2°40.29 11.9 254 10.2 101480 88
2003-03-05 11:24 51°10.489 2°39.974 12.2 257 10.2 101490 88
2003-03-05 11:25 51°10.375 2°39.658 11.8 253 10.3 101490 88
2003-03-05 11:26 51°10.265 2°39.343 10.3 257 10.3 101480 88
2003-03-05 11:27 51°10.193 2°39.09 8.4 267 10.3 101490 88
2003-03-05 11:28 51°10.152 2°38.917 7.1 275 10.3 101500 88
2003-03-05 11:29 51°10.125 2°38.814 5.4 284 10.3 101500 88
2003-03-05 11:30 51°10.122 2°38.805 5.1 291 10.3 101500 88
2003-03-05 11:31 51°10.121 2°38.8 5.2 298 10.4 101500 88
2003-03-05 11:32 51°10.121 2°38.794 5.1 298 10.5 101500 88
2003-03-05 11:33 51°10.121 2°38.79 5.5 294 10.5 101500 88
2003-03-05 11:34 51°10.121 2°38.787 4.9 294 10.5 101500 88
2003-03-05 11:35 51°10.113 2°38.76 7.4 269 10.6 101500 88
2003-03-05 11:36 51°10.026 2°38.528 10.6 252 10.6 101480 88
2003-03-05 11:37 51°9.914 2°38.212 11.9 254 10.6 101470 88
2003-03-05 11:39 51°9.784 2°37.874 10.9 256 10.6 101470 88
2003-03-05 11:40 51°9.684 2°37.564 11.4 255 10.7 101460 88
2003-03-05 11:41 51°9.574 2°37.264 10.4 258 10.7 101470 88
2003-03-05 11:42 51°9.475 2°36.967 10.8 260 10.6 101470 88
2003-03-05 11:43 51°9.394 2°36.65 9 270 10.5 101460 87
2003-03-05 11:44 51°9.346 2°36.455 7 285 10.5 101480 87
2003-03-05 11:45 51°9.319 2°36.34 6 294 10.5 101490 88
2003-03-05 11:46 51°9.301 2°36.252 5.9 297 10.5 101490 87
2003-03-05 11:47 51°9.306 2°36.262 4.5 305 10.5 101490 87
2003-03-05 11:48 51°9.316 2°36.286 5 303 10.4 101480 87
2003-03-05 11:49 51°9.324 2°36.306 2.2 325 10.4 101480 87
2003-03-05 11:50 51°9.332 2°36.324 1.6 326 10.3 101480 87
2003-03-05 11:51 51°9.341 2°36.341 1.9 322 10.3 101470 88
2003-03-05 11:52 51°9.344 2°36.34 5.2 307 10.3 101470 88
2003-03-05 11:53 51°9.329 2°36.19 7.2 291 10.4 101470 88
2003-03-05 11:54 51°9.357 2°35.943 6 299 10.4 101470 88
2003-03-05 11:55 51°9.437 2°35.704 3 297 10.4 101460 88
2003-03-05 11:56 51°9.629 2°35.528 1.7 233 10.4 101460 88
2003-03-05 11:57 51°9.852 2°35.48 3.1 186 10.3 101460 87
2003-03-05 11:58 51°10.097 2°35.586 4.6 176 10.2 101460 87
2003-03-05 11:59 51°10.319 2°35.776 5.4 174 10.2 101450 88
2003-03-05 12:00 51°10.531 2°35.976 4.7 179 10.2 101450 88
2003-03-05 12:01 51°10.744 2°36.199 5.2 182 10.2 101450 88
2003-03-05 12:02 51°10.945 2°36.441 4.5 188 10.3 101450 88
2003-03-05 12:03 51°11.155 2°36.66 5.3 191 10.1 101460 87
2003-03-05 12:04 51°11.372 2°36.911 6.6 207 9.8 101450 87
2003-03-05 12:05 51°11.539 2°37.164 5.1 197 9.5 101460 87
2003-03-05 12:06 51°11.61 2°37.353 3.6 173 9.4 101460 88
2003-03-05 12:07 51°11.663 2°37.451 3.4 105 9.3 101460 88
2003-03-05 12:08 51°11.658 2°37.477 3 108 9.3 101460 88
2003-03-05 12:09 51°11.658 2°37.505 2.7 113 9.3 101460 89
2003-03-05 12:10 51°11.66 2°37.539 3.3 113 9.3 101460 89
2003-03-05 12:11 51°11.665 2°37.573 3.2 119 9.3 101450 89
2003-03-05 12:12 51°11.671 2°37.61 3.4 114 9.4 101450 89
2003-03-05 12:13 51°11.712 2°37.677 3 161 9.4 101450 90
2003-03-05 12:15 51°11.91 2°37.84 5.9 205 9.4 101440 90
2003-03-05 12:16 51°12.133 2°38.01 5.4 203 9.5 101440 90
2003-03-05 12:17 51°12.371 2°38.159 5 200 9.6 101440 90
2003-03-05 12:18 51°12.621 2°38.311 4.1 195 9.7 101440 90
2003-03-05 12:19 51°12.852 2°38.441 3.3 196 9.8 101440 90
2003-03-05 12:20 51°13.078 2°38.4 2.9 258 9.8 101440 90
2003-03-05 12:21 51°13.263 2°38.2 3.4 271 9.9 101440 90
2003-03-05 12:22 51°13.414 2°37.954 4.3 276 9.9 101430 90
2003-03-05 12:23 51°13.519 2°37.671 7.4 279 9.9 101430 90
2003-03-05 12:24 51°13.523 2°37.355 8.3 281 10 101420 90
2003-03-05 12:25 51°13.556 2°37.034 6.9 282 9.9 101420 90
2003-03-05 12:26 51°13.596 2°36.726 6.8 283 10 101420 90
2003-03-05 12:27 51°13.634 2°36.411 7 286 10 101420 89
2003-03-05 12:28 51°13.657 2°36.149 5 308 9.9 101430 89
2003-03-05 12:29 51°13.675 2°36.025 2 318 9.8 101430 89
2003-03-05 12:30 51°13.67 2°35.971 5.5 304 9.7 101430 89
2003-03-05 12:31 51°13.66 2°35.939 3.7 308 9.7 101430 89
2003-03-05 12:32 51°13.659 2°35.912 2.6 336 9.7 101430 89
2003-03-05 12:33 51°13.663 2°35.887 1.9 316 9.7 101420 89
2003-03-05 12:34 51°13.671 2°35.896 1.5 326 9.7 101430 89
2003-03-05 12:35 51°13.678 2°35.921 2.2 323 9.7 101430 89
2003-03-05 12:36 51°13.684 2°35.948 2.8 316 9.7 101430 90
2003-03-05 12:37 51°13.691 2°35.977 2.8 312 9.6 101430 89
2003-03-05 12:38 51°13.699 2°36.009 2.5 321 9.7 101430 89
2003-03-05 12:39 51°13.707 2°36.041 1.7 319 9.7 101420 90
2003-03-05 12:40 51°13.704 2°35.984 5.3 313 9.7 101420 89
2003-03-05 12:41 51°13.787 2°35.833 0.6 8 9.6 101420 89
2003-03-05 12:42 51°13.964 2°35.918 7.9 173 9.7 101410 90
2003-03-05 12:43 51°14.062 2°36.215 8.6 189 9.7 101400 89
2003-03-05 12:44 51°14.134 2°36.639 10.6 194 9.8 101390 90
2003-03-05 12:45 51°14.195 2°37.042 9.7 195 9.8 101390 90
2003-03-05 12:46 51°14.257 2°37.447 10 197 9.8 101390 89
2003-03-05 12:47 51°14.328 2°37.891 10.6 200 9.7 101390 89
2003-03-05 12:48 51°14.394 2°38.293 10.2 200 9.5 101390 89
2003-03-05 12:49 51°14.446 2°38.629 7.9 194 9.3 101400 89
2003-03-05 12:50 51°14.481 2°38.875 7 193 9.1 101400 89
2003-03-05 12:51 51°14.5 2°38.991 4.3 202 9.1 101410 90
2003-03-05 12:52 51°14.526 2°39.016 4.1 191 9.2 101400 90
2003-03-05 12:53 51°14.548 2°39.044 4.1 181 9.1 101400 90
2003-03-05 12:54 51°14.568 2°39.073 5.1 169 9 101400 90
2003-03-05 12:55 51°14.587 2°39.104 4.9 155 8.9 101390 90
2003-03-05 12:56 51°14.63 2°39.266 8.1 198 8.9 101390 90
2003-03-05 12:57 51°14.723 2°39.641 9.5 200 8.8 101380 90
2003-03-05 12:58 51°14.823 2°40.03 9.4 204 8.7 101380 90
2003-03-05 12:59 51°14.922 2°40.407 9.8 206 8.7 101380 90
2003-03-05 13:00 51°15.024 2°40.787 9.9 203 8.7 101380 90
2003-03-05 13:01 51°15.125 2°41.181 10 199 8.8 101380 91
2003-03-05 13:02 51°15.225 2°41.55 9.8 198 9 101380 91
2003-03-05 13:04 51°15.343 2°41.989 10.1 197 9.2 101370 92
2003-03-05 13:05 51°15.452 2°42.363 10 197 9.4 101380 92
2003-03-05 13:06 51°15.562 2°42.737 10 196 9.5 101370 92
2003-03-05 13:07 51°15.672 2°43.105 9.9 195 9.5 101370 91
2003-03-05 13:08 51°15.789 2°43.451 7.5 177 9.5 101370 91
2003-03-05 13:09 51°15.855 2°43.66 7.1 169 9.5 101380 91
2003-03-05 13:10 51°15.893 2°43.802 5.8 177 9.2 101380 90
2003-03-05 13:11 51°15.912 2°43.846 4.4 180 9.1 101390 91
2003-03-05 13:12 51°15.928 2°43.877 5.1 171 9.1 101380 91
2003-03-05 13:13 51°15.944 2°43.911 5.4 155 9 101380 91
2003-03-05 13:14 51°15.961 2°43.947 5.4 144 8.9 101380 91
2003-03-05 13:15 51°15.982 2°43.993 5.5 142 8.8 101380 91
2003-03-05 13:16 51°16.003 2°44.146 8.3 206 8.8 101370 91
2003-03-05 13:17 51°15.916 2°44.351 12.2 232 8.8 101370 91
2003-03-05 13:18 51°15.727 2°44.571 14.1 233 8.9 101360 91
2003-03-05 13:19 51°15.53 2°44.768 13.7 234 9.1 101350 92
2003-03-05 13:20 51°15.337 2°44.956 14.3 233 9.2 101350 91
2003-03-05 13:21 51°15.145 2°45.145 14.5 234 9.4 101350 92
2003-03-05 13:22 51°14.942 2°45.349 14.8 232 9.5 101350 91
2003-03-05 13:23 51°14.738 2°45.526 13.9 234 9.7 101350 91
2003-03-05 13:24 51°14.535 2°45.686 13.9 234 9.8 101360 91
2003-03-05 13:25 51°14.327 2°45.843 14 233 9.9 101350 91
2003-03-05 13:26 51°14.132 2°45.996 13.7 233 10 101350 91
2003-03-05 13:27 51°13.914 2°46.165 13.1 235 10 101350 90
2003-03-05 13:28 51°13.71 2°46.322 12.9 235 10 101360 90
2003-03-05 13:29 51°13.505 2°46.484 13.3 235 10 101350 90
2003-03-05 13:30 51°13.317 2°46.623 12.2 238 10.1 101350 90
2003-03-05 13:31 51°13.191 2°46.681 9.8 241 10.3 101340 90
2003-03-05 13:32 51°13.142 2°46.738 6.8 282 10.4 101360 90
2003-03-05 13:33 51°13.152 2°46.769 4.9 312 10.5 101360 89
2003-03-05 13:34 51°13.167 2°46.798 2.2 342 10.5 101370 89
2003-03-05 13:35 51°13.182 2°46.826 2.6 347 10.5 101370 89
2003-03-05 13:36 51°13.199 2°46.853 4.4 350 10.5 101370 88
2003-03-05 13:37 51°13.224 2°46.827 3.8 355 10.5 101360 89
2003-03-05 13:38 51°13.306 2°46.788 4.3 116 10.6 101360 88
2003-03-05 13:39 51°13.39 2°46.919 7.4 175 10.6 101350 88
2003-03-05 13:40 51°13.511 2°47.19 7.4 192 10.5 101340 88
2003-03-05 13:41 51°13.641 2°47.546 9.1 199 10.5 101340 88
2003-03-05 13:42 51°13.765 2°47.906 8.7 197 10.5 101340 87
2003-03-05 13:43 51°13.89 2°48.297 8.7 193 10.5 101340 88
2003-03-05 13:44 51°14.007 2°48.663 9.3 198 10.4 101340 87
2003-03-05 13:45 51°14.138 2°49.073 9.5 198 10.4 101340 87
2003-03-05 13:46 51°14.258 2°49.445 9.1 199 10.3 101350 87
2003-03-05 13:47 51°14.373 2°49.802 9.4 199 10.4 101340 88
2003-03-05 13:48 51°14.46 2°50.107 6.8 198 10.5 101340 88
2003-03-05 13:49 51°14.469 2°50.204 4.7 224 10.8 101360 88
2003-03-05 13:50 51°14.488 2°50.235 4.7 223 10.9 101360 88
2003-03-05 13:51 51°14.506 2°50.265 4.8 214 11 101360 88
2003-03-05 13:52 51°14.522 2°50.298 4.8 205 11 101360 87
2003-03-05 13:53 51°14.538 2°50.33 4.7 198 11 101350 87
2003-03-05 13:54 51°14.55 2°50.412 6 188 11 101350 87
2003-03-05 13:55 51°14.646 2°50.603 3.3 152 10.9 101350 86
2003-03-05 13:56 51°14.82 2°50.549 1.6 234 10.7 101360 86
2003-03-05 13:57 51°15.036 2°50.369 2.2 250 10.7 101360 86
2003-03-05 13:58 51°15.243 2°50.188 2.2 252 10.7 101360 87
2003-03-05 13:59 51°15.457 2°50.009 2.4 256 10.6 101350 86
2003-03-05 14:00 51°15.651 2°49.845 2.7 266 10.5 101350 86
2003-03-05 14:01 51°15.886 2°49.621 2.6 271 10.3 101350 86
2003-03-05 14:02 51°16.078 2°49.437 2.5 270 10.4 101350 87
2003-03-05 14:03 51°16.278 2°49.251 3.2 276 10.3 101340 86
2003-03-05 14:04 51°16.484 2°49.053 3.3 284 10.3 101340 86
2003-03-05 14:05 51°16.68 2°48.818 3.3 292 10.4 101330 87
2003-03-05 14:06 51°16.863 2°48.572 3.2 293 10.3 101330 87
2003-03-05 14:07 51°17.048 2°48.327 3.4 285 10.3 101330 87
2003-03-05 14:09 51°17.256 2°48.047 2.7 315 10.2 101330 86
2003-03-05 14:10 51°17.39 2°47.921 2.9 6 9.9 101330 86
2003-03-05 14:11 51°17.451 2°47.864 3.8 345 9.7 101330 86
2003-03-05 14:12 51°17.483 2°47.849 4.4 347 9.5 101330 86
2003-03-05 14:13 51°17.502 2°47.856 3.4 334 9.4 101330 86
2003-03-05 14:14 51°17.523 2°47.867 1.6 331 9.3 101320 87
2003-03-05 14:15 51°17.539 2°47.877 0.9 336 9.3 101320 87
2003-03-05 14:16 51°17.568 2°47.84 3.9 26 9.3 101330 88
2003-03-05 14:17 51°17.656 2°47.886 5.2 153 9.4 101320 88
2003-03-05 14:18 51°17.774 2°48.152 8.5 200 9.2 101310 88
2003-03-05 14:19 51°17.902 2°48.554 9.2 198 9.1 101310 88
2003-03-05 14:21 51°18.021 2°48.999 9 196 9.2 101310 89
2003-03-05 14:22 51°18.116 2°49.37 8.8 199 9.2 101310 89
2003-03-05 14:23 51°18.212 2°49.742 8.3 192 9.2 101310 89
2003-03-05 14:24 51°18.317 2°50.132 8.5 190 9.2 101310 90
2003-03-05 14:25 51°18.405 2°50.497 8.1 198 9.2 101310 89
2003-03-05 14:26 51°18.447 2°50.747 6.7 166 9.2 101310 89
2003-03-05 14:27 51°18.502 2°50.895 4.6 168 9.1 101320 89
2003-03-05 14:28 51°18.532 2°50.99 5 169 8.9 101320 89
2003-03-05 14:29 51°18.557 2°51.021 4.3 162 8.9 101310 89
2003-03-05 14:30 51°18.578 2°51.037 4.4 152 9 101310 90
2003-03-05 14:31 51°18.599 2°51.057 4.4 145 9.1 101310 90
2003-03-05 14:32 51°18.621 2°51.082 4.9 141 9.2 101310 90
2003-03-05 14:33 51°18.65 2°51.138 4.2 186 9.2 101310 89
2003-03-05 14:34 51°18.615 2°51.319 9.9 228 9.2 101300 90
2003-03-05 14:35 51°18.462 2°51.456 13.1 231 9.3 101290 90
2003-03-05 14:36 51°18.247 2°51.645 13.1 232 9.5 101280 90
2003-03-05 14:37 51°18.057 2°51.832 13.7 231 9.7 101290 90
2003-03-05 14:38 51°17.865 2°52.024 13.2 232 9.6 101290 89
2003-03-05 14:39 51°17.679 2°52.21 13.3 231 9.6 101290 89
2003-03-05 14:40 51°17.488 2°52.403 12.5 234 9.8 101290 89
2003-03-05 14:41 51°17.302 2°52.594 13.4 228 9.7 101290 89
2003-03-05 14:42 51°17.118 2°52.845 13.6 225 9.8 101280 89
2003-03-05 14:43 51°16.964 2°53.116 13.1 225 10 101280 89
2003-03-05 14:44 51°16.808 2°53.39 13.9 225 10.3 101280 89
2003-03-05 14:45 51°16.635 2°53.677 13 230 10.6 101270 89
2003-03-05 14:46 51°16.473 2°53.949 10.5 234 10.6 101280 88
2003-03-05 14:47 51°16.369 2°54.076 8.7 245 10.7 101290 88
2003-03-05 14:48 51°16.316 2°54.117 7.3 262 10.8 101290 87
2003-03-05 14:49 51°16.289 2°54.148 6.7 254 11 101290 88
2003-03-05 14:50 51°16.278 2°54.185 6.6 244 11.1 101290 87
2003-03-05 14:51 51°16.276 2°54.227 6.1 238 11.2 101300 87
2003-03-05 14:52 51°16.283 2°54.269 5.6 233 11.3 101290 86
2003-03-05 14:54 51°16.293 2°54.31 6.2 218 11.4 101300 86
2003-03-05 14:55 51°16.31 2°54.357 5.8 205 11.6 101290 85
2003-03-05 14:56 51°16.279 2°54.463 8.7 238 11.5 101290 84
2003-03-05 14:57 51°16.124 2°54.582 11.1 240 11.4 101280 84
2003-03-05 14:58 51°15.966 2°54.651 10.4 240 11.4 101280 84
2003-03-05 14:59 51°15.797 2°54.713 9.6 243 11.5 101280 84
2003-03-05 15:00 51°15.655 2°54.758 9.6 243 11.6 101290 84
2003-03-05 15:01 51°15.497 2°54.802 11.5 241 11.5 101270 83
2003-03-05 15:02 51°15.296 2°54.853 12.8 239 11.5 101270 83
2003-03-05 15:03 51°15.099 2°54.9 11.6 243 11.6 101270 84
2003-03-05 15:04 51°14.904 2°54.935 12.1 244 11.7 101270 84
2003-03-05 15:05 51°14.706 2°54.959 11.7 241 11.8 101260 83
2003-03-05 15:06 51°14.518 2°54.979 11.6 245 12 101260 84